sensor_id;sensor_type;location;lat;lon;timestamp;P1;durP1;ratioP1;P2;durP2;ratioP2
10535;SDS011;5316;49.538;8.352;2023-07-02T10:12:31;21.42;;;13.20;;
10535;SDS011;5316;49.538;8.352;2023-07-02T10:14:58;19.88;;;13.73;;
10535;SDS011;5316;49.538;8.352;2023-07-02T10:17:26;21.93;;;15.47;;
10535;SDS011;5316;49.538;8.352;2023-07-02T10:19:56;21.73;;;15.65;;
10535;SDS011;5316;49.538;8.352;2023-07-02T10:22:24;24.97;;;17.53;;
10535;SDS011;5316;49.538;8.352;2023-07-02T10:24:53;20.42;;;13.32;;
10535;SDS011;5316;49.538;8.352;2023-07-02T10:27:34;22.52;;;14.20;;
10535;SDS011;5316;49.538;8.352;2023-07-02T10:30:03;20.33;;;13.57;;
10535;SDS011;5316;49.538;8.352;2023-07-02T10:32:31;23.92;;;17.55;;
10535;SDS011;5316;49.538;8.352;2023-07-02T10:34:59;28.83;;;20.58;;
10535;SDS011;5316;49.538;8.352;2023-07-02T10:37:34;23.27;;;15.93;;
10535;SDS011;5316;49.538;8.352;2023-07-02T10:40:03;20.98;;;14.27;;
10535;SDS011;5316;49.538;8.352;2023-07-02T10:42:31;22.33;;;15.43;;
10535;SDS011;5316;49.538;8.352;2023-07-02T10:45:00;32.50;;;23.75;;
10535;SDS011;5316;49.538;8.352;2023-07-02T10:47:27;20.88;;;14.60;;
10535;SDS011;5316;49.538;8.352;2023-07-02T10:49:55;17.40;;;12.30;;
10535;SDS011;5316;49.538;8.352;2023-07-02T10:52:36;20.55;;;14.90;;
10535;SDS011;5316;49.538;8.352;2023-07-02T10:55:07;22.13;;;14.15;;
10535;SDS011;5316;49.538;8.352;2023-07-02T10:57:44;18.52;;;14.25;;
10535;SDS011;5316;49.538;8.352;2023-07-02T11:00:11;21.88;;;13.50;;
10535;SDS011;5316;49.538;8.352;2023-07-02T11:02:39;19.52;;;13.70;;
10535;SDS011;5316;49.538;8.352;2023-07-02T11:05:08;22.10;;;13.75;;
10535;SDS011;5316;49.538;8.352;2023-07-02T11:07:37;18.38;;;13.68;;
10535;SDS011;5316;49.538;8.352;2023-07-02T11:10:05;22.02;;;15.40;;
10535;SDS011;5316;49.538;8.352;2023-07-02T11:12:32;20.00;;;13.45;;
10535;SDS011;5316;49.538;8.352;2023-07-02T11:15:10;20.85;;;15.40;;
10535;SDS011;5316;49.538;8.352;2023-07-02T11:17:38;20.67;;;13.80;;
10535;SDS011;5316;49.538;8.352;2023-07-02T11:20:07;26.55;;;16.85;;
10535;SDS011;5316;49.538;8.352;2023-07-02T11:22:35;45.17;;;28.58;;
10535;SDS011;5316;49.538;8.352;2023-07-02T11:25:10;37.03;;;24.45;;
10535;SDS011;5316;49.538;8.352;2023-07-02T11:27:40;24.40;;;16.08;;
10535;SDS011;5316;49.538;8.352;2023-07-02T11:30:10;22.33;;;13.90;;
10535;SDS011;5316;49.538;8.352;2023-07-02T11:32:47;26.20;;;17.20;;
10535;SDS011;5316;49.538;8.352;2023-07-02T11:35:16;22.23;;;13.43;;
10535;SDS011;5316;49.538;8.352;2023-07-02T11:37:43;18.35;;;12.55;;
10535;SDS011;5316;49.538;8.352;2023-07-02T11:40:11;18.70;;;13.00;;
10535;SDS011;5316;49.538;8.352;2023-07-02T11:42:39;14.13;;;11.00;;
10535;SDS011;5316;49.538;8.352;2023-07-02T11:45:07;18.45;;;12.50;;
10535;SDS011;5316;49.538;8.352;2023-07-02T11:47:38;15.88;;;12.07;;
10535;SDS011;5316;49.538;8.352;2023-07-02T11:50:05;18.55;;;14.15;;
10535;SDS011;5316;49.538;8.352;2023-07-02T11:52:32;19.80;;;11.70;;
10535;SDS011;5316;49.538;8.352;2023-07-02T11:55:00;18.35;;;11.18;;
10535;SDS011;5316;49.538;8.352;2023-07-02T11:57:27;20.63;;;13.07;;
10535;SDS011;5316;49.538;8.352;2023-07-02T11:59:54;18.42;;;12.55;;
10535;SDS011;5316;49.538;8.352;2023-07-02T12:02:21;18.30;;;13.07;;
10535;SDS011;5316;49.538;8.352;2023-07-02T12:04:49;18.25;;;12.75;;
10535;SDS011;5316;49.538;8.352;2023-07-02T12:07:16;17.95;;;13.00;;
10535;SDS011;5316;49.538;8.352;2023-07-02T12:09:43;17.85;;;12.15;;
10535;SDS011;5316;49.538;8.352;2023-07-02T12:12:10;19.88;;;12.30;;
10535;SDS011;5316;49.538;8.352;2023-07-02T12:14:37;17.20;;;12.70;;
10535;SDS011;5316;49.538;8.352;2023-07-02T12:17:08;19.75;;;15.40;;
10535;SDS011;5316;49.538;8.352;2023-07-02T12:19:37;19.00;;;13.65;;
10535;SDS011;5316;49.538;8.352;2023-07-02T12:22:06;23.60;;;15.35;;
10535;SDS011;5316;49.538;8.352;2023-07-02T12:24:33;21.85;;;14.88;;
10535;SDS011;5316;49.538;8.352;2023-07-02T12:27:00;20.90;;;15.80;;
10535;SDS011;5316;49.538;8.352;2023-07-02T12:29:27;22.65;;;15.48;;
10535;SDS011;5316;49.538;8.352;2023-07-02T12:31:54;18.55;;;13.00;;
10535;SDS011;5316;49.538;8.352;2023-07-02T12:34:20;21.33;;;13.68;;
10535;SDS011;5316;49.538;8.352;2023-07-02T12:36:48;16.65;;;12.00;;
10535;SDS011;5316;49.538;8.352;2023-07-02T12:39:21;18.55;;;13.57;;
10535;SDS011;5316;49.538;8.352;2023-07-02T12:41:48;19.23;;;13.23;;
10535;SDS011;5316;49.538;8.352;2023-07-02T12:44:16;20.98;;;13.90;;
10535;SDS011;5316;49.538;8.352;2023-07-02T12:46:43;20.75;;;13.52;;
10535;SDS011;5316;49.538;8.352;2023-07-02T12:49:10;17.45;;;12.82;;
10535;SDS011;5316;49.538;8.352;2023-07-02T12:51:38;19.38;;;12.43;;
10535;SDS011;5316;49.538;8.352;2023-07-02T12:54:05;17.67;;;12.35;;
10535;SDS011;5316;49.538;8.352;2023-07-02T12:56:34;17.33;;;12.00;;
10535;SDS011;5316;49.538;8.352;2023-07-02T12:59:02;19.30;;;12.15;;
10535;SDS011;5316;49.538;8.352;2023-07-02T13:01:29;16.95;;;12.00;;
10535;SDS011;5316;49.538;8.352;2023-07-02T13:04:07;19.63;;;12.07;;
10535;SDS011;5316;49.538;8.352;2023-07-02T22:13:04;16.70;;;9.20;;
10535;SDS011;5316;49.538;8.352;2023-07-02T22:15:33;14.63;;;9.73;;
10535;SDS011;5316;49.538;8.352;2023-07-02T22:18:00;16.92;;;9.52;;
10535;SDS011;5316;49.538;8.352;2023-07-02T22:20:28;14.20;;;9.20;;
10535;SDS011;5316;49.538;8.352;2023-07-02T22:22:56;16.33;;;9.17;;
10535;SDS011;5316;49.538;8.352;2023-07-02T22:25:24;15.10;;;9.30;;
10535;SDS011;5316;49.538;8.352;2023-07-02T22:27:51;14.52;;;8.93;;
10535;SDS011;5316;49.538;8.352;2023-07-02T22:30:21;19.42;;;9.65;;
10535;SDS011;5316;49.538;8.352;2023-07-02T22:32:49;15.40;;;9.18;;
10535;SDS011;5316;49.538;8.352;2023-07-02T22:35:16;15.13;;;9.10;;
10535;SDS011;5316;49.538;8.352;2023-07-02T22:37:43;15.13;;;8.80;;
10535;SDS011;5316;49.538;8.352;2023-07-02T22:40:12;19.33;;;9.70;;
10535;SDS011;5316;49.538;8.352;2023-07-02T22:42:41;19.10;;;9.83;;
10535;SDS011;5316;49.538;8.352;2023-07-02T22:45:10;18.47;;;8.90;;
10535;SDS011;5316;49.538;8.352;2023-07-02T22:47:40;15.20;;;8.93;;
10535;SDS011;5316;49.538;8.352;2023-07-02T22:50:08;14.53;;;9.30;;
10535;SDS011;5316;49.538;8.352;2023-07-02T22:52:38;18.23;;;9.88;;
10535;SDS011;5316;49.538;8.352;2023-07-02T22:55:09;15.83;;;9.40;;
10535;SDS011;5316;49.538;8.352;2023-07-02T22:57:37;15.47;;;9.40;;
10535;SDS011;5316;49.538;8.352;2023-07-02T23:00:09;16.77;;;9.73;;
10535;SDS011;5316;49.538;8.352;2023-07-02T23:02:41;18.23;;;10.07;;
10535;SDS011;5316;49.538;8.352;2023-07-02T23:05:09;16.80;;;9.37;;
10535;SDS011;5316;49.538;8.352;2023-07-02T23:07:37;16.07;;;9.63;;
10535;SDS011;5316;49.538;8.352;2023-07-02T23:10:04;17.53;;;9.33;;
10535;SDS011;5316;49.538;8.352;2023-07-02T23:12:39;15.77;;;9.10;;
10535;SDS011;5316;49.538;8.352;2023-07-02T23:15:08;18.27;;;10.00;;
10535;SDS011;5316;49.538;8.352;2023-07-02T23:17:44;15.23;;;8.77;;
10535;SDS011;5316;49.538;8.352;2023-07-02T23:20:12;21.17;;;9.77;;
10535;SDS011;5316;49.538;8.352;2023-07-02T23:22:40;17.47;;;9.50;;
10535;SDS011;5316;49.538;8.352;2023-07-02T23:25:09;16.42;;;8.82;;
10535;SDS011;5316;49.538;8.352;2023-07-02T23:27:37;16.03;;;9.33;;
10535;SDS011;5316;49.538;8.352;2023-07-02T23:30:08;15.27;;;9.57;;
10535;SDS011;5316;49.538;8.352;2023-07-02T23:32:38;16.53;;;8.90;;
10535;SDS011;5316;49.538;8.352;2023-07-02T23:35:09;15.10;;;8.90;;
10535;SDS011;5316;49.538;8.352;2023-07-02T23:37:37;15.67;;;9.53;;
10535;SDS011;5316;49.538;8.352;2023-07-02T23:40:08;20.60;;;9.70;;
10535;SDS011;5316;49.538;8.352;2023-07-02T23:42:38;15.43;;;9.00;;
10535;SDS011;5316;49.538;8.352;2023-07-02T23:45:06;20.43;;;10.10;;
10535;SDS011;5316;49.538;8.352;2023-07-02T23:47:35;15.43;;;9.70;;
10535;SDS011;5316;49.538;8.352;2023-07-02T23:50:03;14.00;;;8.97;;
10535;SDS011;5316;49.538;8.352;2023-07-02T23:52:33;20.00;;;9.77;;
10535;SDS011;5316;49.538;8.352;2023-07-02T23:55:01;15.27;;;9.30;;
10535;SDS011;5316;49.538;8.352;2023-07-02T23:57:29;15.77;;;9.20;;
10535;SDS011;5316;49.538;8.352;2023-07-02T23:59:56;21.27;;;9.67;;
